Time;durP1;ratioP1;P1;durP2;ratioP2;P2;SDS_P1;SDS_P2;PMS_P1;PMS_P2;Temp;Humidity;BMP_temperature;BMP_pressure;BME280_temperature;BME280_humidity;BME280_pressure;Samples;Min_cycle;Max_cycle;Signal;HPM_P1;HPM_P2
2024/01/28 00:01:45;;;;;;;14.77;8.68;;;1.10;99.90;;;;;;4935156;28;20026;-84
2024/01/28 00:04:11;;;;;;;12.00;7.85;;;1.10;99.90;;;;;;4942151;28;20026;-86
2024/01/28 00:06:36;;;;;;;14.32;8.43;;;1.10;99.90;;;;;;4942881;28;21363;-87
2024/01/28 00:09:02;;;;;;;12.38;7.60;;;1.10;99.90;;;;;;4976601;28;20049;-84
2024/01/28 00:11:31;;;;;;;14.85;8.02;;;1.00;99.90;;;;;;4953160;28;20503;-84
2024/01/28 00:13:57;;;;;;;16.88;9.20;;;1.00;99.90;;;;;;4979830;28;20085;-86
2024/01/28 00:16:22;;;;;;;15.98;7.68;;;1.00;99.90;;;;;;4942879;28;20072;-85
2024/01/28 00:18:48;;;;;;;19.33;9.02;;;1.00;99.90;;;;;;4938752;28;20030;-87
2024/01/28 00:21:13;;;;;;;14.40;8.52;;;1.00;99.90;;;;;;4966184;28;20018;-85
2024/01/28 00:23:39;;;;;;;16.52;8.20;;;1.00;99.90;;;;;;4950979;28;20035;-85
2024/01/28 00:26:04;;;;;;;15.82;8.00;;;1.00;99.90;;;;;;4960689;28;21374;-86
2024/01/28 00:28:30;;;;;;;19.45;8.85;;;1.00;99.90;;;;;;4947478;28;20031;-86
2024/01/28 00:30:56;;;;;;;16.48;8.07;;;0.90;99.90;;;;;;4935825;28;20038;-86
2024/01/28 00:33:22;;;;;;;21.02;8.52;;;1.00;99.90;;;;;;4948355;28;20037;-85
2024/01/28 00:35:48;;;;;;;11.95;7.78;;;0.90;99.90;;;;;;4973947;28;20831;-87
2024/01/28 00:38:13;;;;;;;14.57;7.97;;;0.90;99.90;;;;;;4968731;28;20030;-85
2024/01/28 00:40:39;;;;;;;14.52;8.13;;;0.90;99.90;;;;;;4941076;28;20505;-87
2024/01/28 00:43:05;;;;;;;10.38;6.88;;;0.90;99.90;;;;;;4929912;28;20053;-84
2024/01/28 00:45:31;;;;;;;13.20;6.93;;;0.80;99.90;;;;;;4909248;28;20026;-86
2024/01/28 00:47:57;;;;;;;15.80;8.65;;;0.80;99.90;;;;;;4969212;28;20030;-87
2024/01/28 00:50:35;;;;;;;15.32;7.28;;;0.80;99.90;;;;;;4960874;28;20027;-86
2024/01/28 00:53:00;;;;;;;12.82;8.48;;;0.80;99.90;;;;;;4964182;28;20034;-85
2024/01/28 00:55:26;;;;;;;14.85;7.07;;;0.80;99.90;;;;;;4936278;28;20064;-87
2024/01/28 00:57:52;;;;;;;15.48;7.43;;;0.80;99.90;;;;;;4876271;28;20584;-84
2024/01/28 01:00:18;;;;;;;12.18;7.28;;;0.80;99.90;;;;;;4933866;28;20413;-85
2024/01/28 01:02:43;;;;;;;9.95;7.35;;;0.70;99.90;;;;;;4868852;28;21403;-87
2024/01/28 01:05:09;;;;;;;12.40;7.25;;;0.70;99.90;;;;;;4930383;28;20023;-87
2024/01/28 01:07:34;;;;;;;10.65;7.53;;;0.70;99.90;;;;;;4884277;28;20029;-87
2024/01/28 01:10:00;;;;;;;9.25;6.47;;;0.70;99.90;;;;;;4891148;28;20033;-84
2024/01/28 01:12:26;;;;;;;14.40;7.35;;;0.70;99.90;;;;;;4874309;28;20026;-87
2024/01/28 01:14:51;;;;;;;11.30;7.05;;;0.70;99.90;;;;;;4936131;28;21424;-86
2024/01/28 01:17:17;;;;;;;12.07;6.97;;;0.60;99.90;;;;;;4927519;28;20033;-85
2024/01/28 01:19:42;;;;;;;13.75;6.97;;;0.60;99.90;;;;;;4899887;28;20069;-85
2024/01/28 01:22:08;;;;;;;22.88;7.20;;;0.60;99.90;;;;;;4869828;28;20022;-85
2024/01/28 01:24:35;;;;;;;19.52;7.65;;;0.60;99.90;;;;;;4884873;28;20065;-87
2024/01/28 01:27:01;;;;;;;11.75;7.65;;;0.60;99.90;;;;;;4915440;28;20625;-85
2024/01/28 01:29:30;;;;;;;11.88;6.68;;;0.50;99.90;;;;;;4926163;28;20034;-84
2024/01/28 01:31:55;;;;;;;14.15;7.72;;;0.50;99.90;;;;;;4918408;28;20110;-84
2024/01/28 01:34:21;;;;;;;10.32;6.25;;;0.50;99.90;;;;;;4886819;28;20313;-83
2024/01/28 01:36:46;;;;;;;10.98;6.43;;;0.50;99.90;;;;;;4876404;28;21635;-86
2024/01/28 01:39:16;;;;;;;15.75;5.90;;;0.50;99.90;;;;;;4936343;28;20019;-83
2024/01/28 01:41:43;;;;;;;11.20;7.22;;;0.50;99.90;;;;;;4873488;28;20018;-82
2024/01/28 01:44:09;;;;;;;17.00;7.13;;;0.40;99.90;;;;;;4940410;28;20062;-83
2024/01/28 01:46:35;;;;;;;10.57;6.20;;;0.50;99.90;;;;;;4903455;28;20030;-82
2024/01/28 01:49:01;;;;;;;13.63;6.38;;;0.40;99.90;;;;;;4879551;28;20034;-82
2024/01/28 01:51:27;;;;;;;11.15;6.63;;;0.40;99.90;;;;;;4884776;28;20027;-84
2024/01/28 01:53:54;;;;;;;17.17;7.10;;;0.40;99.90;;;;;;4927289;28;21919;-84
2024/01/28 01:56:20;;;;;;;11.82;6.55;;;0.40;99.90;;;;;;4930253;28;20038;-85
2024/01/28 01:58:46;;;;;;;20.50;7.68;;;0.40;99.90;;;;;;4873570;28;20553;-83
2024/01/28 02:01:16;;;;;;;7.82;6.15;;;0.30;99.90;;;;;;4913296;28;20039;-83
2024/01/28 02:03:42;;;;;;;14.93;6.95;;;0.40;99.90;;;;;;4895727;28;21367;-85
2024/01/28 02:06:08;;;;;;;14.40;7.15;;;0.30;99.90;;;;;;4946929;28;20034;-85
2024/01/28 02:08:33;;;;;;;12.65;7.07;;;0.30;99.90;;;;;;4907946;28;20697;-83
2024/01/28 02:11:02;;;;;;;14.63;6.32;;;0.30;99.90;;;;;;4907089;28;20137;-85
2024/01/28 02:13:28;;;;;;;14.75;7.78;;;0.30;99.90;;;;;;4899399;28;20096;-83
2024/01/28 02:15:53;;;;;;;12.68;5.68;;;0.30;99.90;;;;;;4907579;28;20449;-82
2024/01/28 02:18:19;;;;;;;11.50;6.82;;;0.30;99.90;;;;;;4936475;28;20042;-83
2024/01/28 02:20:45;;;;;;;15.20;6.55;;;0.30;99.90;;;;;;4918398;28;20069;-83
2024/01/28 02:23:17;;;;;;;13.25;7.30;;;0.30;99.90;;;;;;4934285;28;20042;-84
2024/01/28 02:25:43;;;;;;;15.85;6.88;;;0.30;99.90;;;;;;4888600;28;20038;-84
2024/01/28 02:28:08;;;;;;;15.23;6.65;;;0.30;99.90;;;;;;4903738;28;20034;-82
2024/01/28 02:30:35;;;;;;;11.70;6.55;;;0.30;99.90;;;;;;4940278;28;20136;-83
2024/01/28 02:33:01;;;;;;;11.90;7.10;;;0.30;99.90;;;;;;4982309;28;20053;-81
2024/01/28 02:35:27;;;;;;;11.35;6.38;;;0.30;99.90;;;;;;4933154;28;20495;-82
2024/01/28 02:37:52;;;;;;;14.27;7.03;;;0.30;99.90;;;;;;4918872;28;20035;-84
2024/01/28 02:40:18;;;;;;;11.73;6.50;;;0.30;99.90;;;;;;4945567;28;20066;-84
2024/01/28 02:42:43;;;;;;;12.93;7.55;;;0.30;99.90;;;;;;4933130;28;21905;-84
2024/01/28 02:45:09;;;;;;;13.95;6.93;;;0.30;99.90;;;;;;4987194;28;20417;-81
2024/01/28 02:47:35;;;;;;;15.13;6.57;;;0.30;99.90;;;;;;4927747;28;20525;-83
2024/01/28 02:50:00;;;;;;;14.43;7.60;;;0.30;99.90;;;;;;4916879;28;20109;-81
2024/01/28 02:52:26;;;;;;;11.23;6.63;;;0.30;99.90;;;;;;4942849;28;20036;-83
2024/01/28 02:54:51;;;;;;;12.57;6.40;;;0.30;99.90;;;;;;4920948;28;20050;-83
2024/01/28 02:57:19;;;;;;;12.27;6.63;;;0.30;99.90;;;;;;4988150;28;20034;-84
2024/01/28 02:59:45;;;;;;;10.35;7.13;;;0.20;99.90;;;;;;4934039;28;20299;-82
2024/01/28 03:02:11;;;;;;;13.95;6.05;;;0.20;99.90;;;;;;4900917;28;20038;-82
2024/01/28 03:04:37;;;;;;;10.88;5.82;;;0.20;99.90;;;;;;4941802;28;20058;-84
2024/01/28 03:07:03;;;;;;;13.07;7.38;;;0.20;99.90;;;;;;4929927;28;20027;-85
2024/01/28 03:09:29;;;;;;;12.57;7.22;;;0.20;99.90;;;;;;4933446;28;20026;-83
2024/01/28 03:11:54;;;;;;;11.68;7.15;;;0.20;99.90;;;;;;4966310;28;20023;-83
2024/01/28 03:14:20;;;;;;;12.70;6.22;;;0.20;99.90;;;;;;4929594;28;20026;-84
2024/01/28 03:16:46;;;;;;;13.60;5.70;;;0.20;99.90;;;;;;4952548;28;20571;-83
2024/01/28 03:19:12;;;;;;;10.57;6.80;;;0.20;99.90;;;;;;4947811;28;20030;-86
2024/01/28 03:21:37;;;;;;;10.65;6.13;;;0.10;99.90;;;;;;4939190;28;21422;-85
2024/01/28 03:24:03;;;;;;;16.88;7.57;;;0.10;99.90;;;;;;5006566;28;20030;-85
2024/01/28 03:26:29;;;;;;;13.18;7.13;;;0.10;99.90;;;;;;4929398;28;20026;-84
2024/01/28 03:28:56;;;;;;;19.25;8.13;;;0.10;99.90;;;;;;4943310;28;20107;-86
2024/01/28 03:31:21;;;;;;;11.25;6.43;;;0.10;99.90;;;;;;4935849;28;20045;-85
2024/01/28 03:33:47;;;;;;;14.27;6.93;;;0.10;99.90;;;;;;4943906;28;20717;-86
2024/01/28 03:36:13;;;;;;;12.77;7.30;;;0.00;99.90;;;;;;4992374;28;20063;-85
2024/01/28 03:38:39;;;;;;;11.38;7.55;;;0.00;99.90;;;;;;4931207;28;20129;-85
2024/01/28 03:41:05;;;;;;;10.65;6.80;;;0.00;99.90;;;;;;4939901;28;20046;-86
2024/01/28 03:43:30;;;;;;;12.40;7.43;;;0.00;99.90;;;;;;4938908;28;20033;-85
2024/01/28 03:45:56;;;;;;;10.27;6.22;;;-0.10;99.90;;;;;;4943805;28;20041;-84
2024/01/28 03:48:24;;;;;;;20.92;7.32;;;-0.10;99.90;;;;;;4957901;28;20029;-83
2024/01/28 03:50:50;;;;;;;14.57;7.57;;;-0.10;99.90;;;;;;4965651;28;20022;-85
2024/01/28 03:53:15;;;;;;;12.48;7.35;;;-0.10;99.90;;;;;;4942978;28;20145;-85
2024/01/28 03:55:43;;;;;;;11.82;6.47;;;-0.10;99.90;;;;;;4916694;28;20062;-85
2024/01/28 03:58:10;;;;;;;13.55;7.97;;;-0.20;99.90;;;;;;4915331;28;20025;-86
2024/01/28 04:00:36;;;;;;;15.00;7.60;;;-0.20;99.90;;;;;;4915206;28;20034;-86
2024/01/28 04:03:01;;;;;;;14.15;7.45;;;-0.20;99.90;;;;;;4999894;28;20137;-84
2024/01/28 04:05:27;;;;;;;14.00;7.20;;;-0.30;99.90;;;;;;4912916;28;20023;-84
2024/01/28 04:07:52;;;;;;;11.43;7.13;;;-0.30;99.90;;;;;;4911207;28;20701;-85
2024/01/28 04:10:18;;;;;;;13.82;7.43;;;-0.30;99.90;;;;;;4914997;28;20065;-84
2024/01/28 04:12:44;;;;;;;10.75;6.35;;;-0.40;99.90;;;;;;4908627;28;21587;-85
2024/01/28 04:15:09;;;;;;;10.63;5.80;;;-0.40;99.90;;;;;;4993054;28;20041;-86
2024/01/28 04:17:35;;;;;;;11.55;6.32;;;-0.40;99.90;;;;;;4920561;28;20062;-85
2024/01/28 04:20:03;;;;;;;14.68;7.18;;;-0.50;99.90;;;;;;4899631;28;20103;-85
2024/01/28 04:22:30;;;;;;;11.82;5.88;;;-0.50;99.90;;;;;;4920398;28;20407;-85
2024/01/28 04:24:55;;;;;;;17.73;7.55;;;-0.50;99.90;;;;;;4912257;28;20420;-83
2024/01/28 04:27:21;;;;;;;14.65;7.80;;;-0.50;99.90;;;;;;4979084;28;20098;-83
2024/01/28 04:29:47;;;;;;;12.63;7.25;;;-0.50;99.90;;;;;;4932006;28;20038;-84
2024/01/28 04:32:14;;;;;;;16.17;8.07;;;-0.50;99.90;;;;;;4898882;28;20050;-82
2024/01/28 04:34:40;;;;;;;9.10;6.80;;;-0.50;99.90;;;;;;4902175;28;20022;-84
2024/01/28 04:37:06;;;;;;;15.18;8.05;;;-0.40;99.90;;;;;;4904719;28;20053;-84
2024/01/28 04:39:34;;;;;;;18.17;8.52;;;-0.50;99.90;;;;;;4922269;28;20034;-83
2024/01/28 04:42:01;;;;;;;15.93;7.63;;;-0.50;99.90;;;;;;4983482;28;20030;-84
2024/01/28 04:44:26;;;;;;;13.45;7.57;;;-0.50;99.90;;;;;;4914062;28;20141;-84
2024/01/28 04:46:52;;;;;;;13.63;7.22;;;-0.50;99.90;;;;;;4906025;28;20019;-83
2024/01/28 04:49:18;;;;;;;15.20;7.63;;;-0.60;99.90;;;;;;4902424;28;20029;-85
2024/01/28 04:51:43;;;;;;;11.60;6.43;;;-0.60;99.90;;;;;;4890080;28;21158;-84
2024/01/28 04:54:09;;;;;;;13.07;7.18;;;-0.60;99.90;;;;;;4998524;28;20030;-84
2024/01/28 04:56:35;;;;;;;11.95;6.72;;;-0.60;99.90;;;;;;4905360;28;20073;-85
2024/01/28 04:59:03;;;;;;;15.80;7.45;;;-0.70;99.90;;;;;;4896868;28;20064;-84
2024/01/28 05:01:28;;;;;;;15.07;7.03;;;-0.70;99.90;;;;;;4929165;28;20046;-86
2024/01/28 05:03:54;;;;;;;13.05;5.93;;;-0.70;99.90;;;;;;4931503;28;20279;-83
2024/01/28 05:06:20;;;;;;;14.65;7.25;;;-0.70;99.90;;;;;;4989197;28;20019;-86
2024/01/28 05:08:45;;;;;;;14.05;6.82;;;-0.70;99.90;;;;;;4924874;28;20049;-82
2024/01/28 05:11:11;;;;;;;16.70;7.40;;;-0.80;99.90;;;;;;4923199;28;20031;-83
2024/01/28 05:13:37;;;;;;;15.93;7.20;;;-0.80;99.90;;;;;;4927752;28;20895;-84
2024/01/28 05:16:03;;;;;;;11.88;7.03;;;-0.80;99.90;;;;;;4923368;28;20077;-85
2024/01/28 05:18:30;;;;;;;9.30;6.55;;;-0.80;99.90;;;;;;4940484;28;20035;-83
2024/01/28 05:20:55;;;;;;;16.88;6.97;;;-0.70;99.90;;;;;;4939795;28;20042;-81
2024/01/28 05:23:21;;;;;;;16.25;7.35;;;-0.70;99.90;;;;;;4914151;28;20398;-82
2024/01/28 05:25:47;;;;;;;15.65;7.40;;;-0.70;99.90;;;;;;4914606;28;20038;-82
2024/01/28 05:28:13;;;;;;;13.93;6.93;;;-0.80;99.90;;;;;;4901806;28;20022;-85
2024/01/28 05:30:38;;;;;;;13.10;7.53;;;-0.80;99.90;;;;;;4891834;28;20109;-82
2024/01/28 05:33:05;;;;;;;16.70;6.95;;;-0.80;99.90;;;;;;4942879;28;21559;-83
2024/01/28 05:35:32;;;;;;;13.18;6.72;;;-0.80;99.90;;;;;;4896161;28;20499;-83
2024/01/28 05:37:58;;;;;;;9.77;7.13;;;-0.80;99.90;;;;;;4898639;28;20029;-82
2024/01/28 05:40:24;;;;;;;13.40;7.18;;;-0.80;99.90;;;;;;4886235;28;20137;-83
2024/01/28 05:42:50;;;;;;;17.55;7.40;;;-0.90;99.90;;;;;;4912116;28;21907;-82
2024/01/28 05:45:15;;;;;;;13.02;6.30;;;-0.90;99.90;;;;;;4958366;28;20134;-84
2024/01/28 05:47:41;;;;;;;16.45;8.02;;;-0.90;99.90;;;;;;4895262;28;20036;-83
2024/01/28 05:50:07;;;;;;;17.13;7.72;;;-0.90;99.90;;;;;;4892862;28;20030;-83
2024/01/28 05:52:32;;;;;;;17.63;8.48;;;-0.90;99.90;;;;;;4893877;28;20113;-83
2024/01/28 05:54:58;;;;;;;17.35;7.70;;;-0.90;99.90;;;;;;4902894;28;20042;-82
2024/01/28 05:57:24;;;;;;;11.85;6.95;;;-0.90;99.90;;;;;;4947581;28;20030;-80
2024/01/28 05:59:50;;;;;;;11.40;7.78;;;-0.90;99.90;;;;;;4903913;28;20157;-84
2024/01/28 06:02:15;;;;;;;18.25;7.80;;;-0.90;99.90;;;;;;4906489;28;20078;-84
2024/01/28 06:04:41;;;;;;;14.68;7.60;;;-0.90;99.90;;;;;;4892394;28;21314;-83
2024/01/28 06:07:07;;;;;;;11.65;7.38;;;-0.90;99.90;;;;;;4927865;28;20293;-84
2024/01/28 06:09:33;;;;;;;14.27;7.53;;;-0.90;99.90;;;;;;4876239;28;20035;-80
2024/01/28 06:11:58;;;;;;;13.80;7.43;;;-0.90;99.90;;;;;;4936732;28;20486;-84
2024/01/28 06:14:24;;;;;;;13.95;7.15;;;-0.90;99.90;;;;;;4872914;28;20036;-83
2024/01/28 06:16:50;;;;;;;12.30;6.57;;;-0.90;99.90;;;;;;4888712;28;20174;-82
2024/01/28 06:19:17;;;;;;;18.83;7.93;;;-0.90;99.90;;;;;;4909238;28;20409;-83
2024/01/28 06:21:42;;;;;;;14.60;7.10;;;-1.00;99.90;;;;;;4879330;28;20036;-83
2024/01/28 06:24:08;;;;;;;17.23;7.60;;;-1.00;99.90;;;;;;4944235;28;20023;-84
2024/01/28 06:26:36;;;;;;;14.70;6.80;;;-1.00;99.90;;;;;;4905944;28;20037;-82
2024/01/28 06:29:03;;;;;;;17.15;7.45;;;-1.00;99.90;;;;;;4875996;28;20030;-84
2024/01/28 06:31:28;;;;;;;12.80;7.03;;;-1.00;99.90;;;;;;4854024;28;20113;-82
2024/01/28 06:33:54;;;;;;;13.00;7.22;;;-1.00;99.90;;;;;;4927662;28;20175;-84
2024/01/28 06:36:21;;;;;;;14.18;7.70;;;-1.00;99.90;;;;;;4940544;28;20038;-83
2024/01/28 06:38:47;;;;;;;18.55;8.23;;;-1.00;99.90;;;;;;4901119;28;20046;-80
2024/01/28 06:41:16;;;;;;;16.88;8.88;;;-1.00;99.90;;;;;;4900345;28;20018;-82
2024/01/28 06:43:42;;;;;;;16.23;7.68;;;-1.00;99.90;;;;;;4893805;28;21353;-83
2024/01/28 06:46:08;;;;;;;18.85;8.52;;;-1.10;99.90;;;;;;4921791;28;20049;-82
2024/01/28 06:48:34;;;;;;;17.15;7.43;;;-1.10;99.90;;;;;;4883170;28;20042;-81
2024/01/28 06:51:05;;;;;;;19.85;8.23;;;-1.10;99.90;;;;;;4959677;28;20068;-83
2024/01/28 06:53:31;;;;;;;13.32;8.40;;;-1.00;99.90;;;;;;4908539;28;20022;-85
2024/01/28 06:55:56;;;;;;;12.43;8.02;;;-1.00;99.90;;;;;;4884870;28;20042;-85
2024/01/28 06:58:22;;;;;;;16.42;8.05;;;-1.00;99.90;;;;;;4893966;28;20030;-81
2024/01/28 07:00:48;;;;;;;14.15;7.82;;;-1.10;99.90;;;;;;4915314;28;21339;-84
2024/01/28 07:03:14;;;;;;;13.38;7.65;;;-1.00;99.90;;;;;;4934214;28;20127;-83
2024/01/28 07:05:39;;;;;;;15.88;8.68;;;-1.10;99.90;;;;;;4889806;28;20022;-84
2024/01/28 07:08:07;;;;;;;14.20;7.70;;;-1.10;99.90;;;;;;4856862;28;20452;-84
2024/01/28 07:10:33;;;;;;;17.33;8.55;;;-1.10;99.90;;;;;;4860030;28;20130;-84
2024/01/28 07:12:59;;;;;;;14.57;7.20;;;-1.00;99.90;;;;;;4945737;28;20021;-84
2024/01/28 07:15:42;;;;;;;17.08;7.82;;;-1.10;99.90;;;;;;4939033;28;20053;-81
2024/01/28 07:18:07;;;;;;;15.07;7.65;;;-1.00;99.90;;;;;;4956759;28;20088;-85
2024/01/28 07:20:33;;;;;;;13.00;7.47;;;-1.10;99.90;;;;;;4925834;28;20073;-83
2024/01/28 07:22:59;;;;;;;16.98;7.43;;;-1.00;99.90;;;;;;4912604;28;20022;-82
2024/01/28 07:25:24;;;;;;;12.38;7.78;;;-1.00;99.90;;;;;;4941629;28;20026;-80
2024/01/28 07:27:50;;;;;;;15.15;7.60;;;-1.00;99.90;;;;;;4948943;28;20041;-83
2024/01/28 07:30:16;;;;;;;16.77;7.82;;;-0.90;99.90;;;;;;4936459;28;20117;-82
2024/01/28 07:32:42;;;;;;;12.45;7.05;;;-1.00;99.90;;;;;;4938838;28;22194;-82
2024/01/28 07:35:07;;;;;;;21.02;8.48;;;-0.90;99.90;;;;;;4942156;28;20033;-82
2024/01/28 07:37:33;;;;;;;14.50;7.40;;;-0.90;99.90;;;;;;4917954;28;20101;-83
2024/01/28 07:39:58;;;;;;;18.33;7.70;;;-0.90;99.90;;;;;;4966548;28;20131;-84
2024/01/28 07:42:26;;;;;;;13.95;7.93;;;-0.90;99.90;;;;;;4957595;28;20114;-82
2024/01/28 07:44:52;;;;;;;15.32;7.20;;;-0.80;99.90;;;;;;4931688;28;20022;-82
2024/01/28 07:47:17;;;;;;;12.40;6.80;;;-0.80;99.90;;;;;;4931641;28;20026;-83
2024/01/28 07:49:43;;;;;;;12.00;6.53;;;-0.80;99.90;;;;;;4928110;28;22319;-83
2024/01/28 07:52:08;;;;;;;18.33;8.30;;;-0.80;99.90;;;;;;4969000;28;20030;-82
2024/01/28 07:54:37;;;;;;;13.45;6.22;;;-0.70;99.90;;;;;;4917263;28;20494;-81
2024/01/28 07:57:02;;;;;;;11.05;6.55;;;-0.70;99.90;;;;;;4947093;28;20064;-82
2024/01/28 07:59:28;;;;;;;12.57;7.05;;;-0.60;99.90;;;;;;4926311;28;20466;-82
2024/01/28 08:01:53;;;;;;;15.85;6.95;;;-0.60;99.90;;;;;;4920834;28;20535;-83
2024/01/28 08:04:22;;;;;;;19.67;6.50;;;-0.60;99.90;;;;;;4935562;28;20579;-80
2024/01/28 08:06:50;;;;;;;15.20;6.78;;;-0.50;99.90;;;;;;4941833;28;21559;-83
2024/01/28 08:09:16;;;;;;;14.38;5.85;;;-0.50;99.90;;;;;;4958472;28;20121;-83
2024/01/28 08:11:41;;;;;;;9.32;5.70;;;-0.50;99.90;;;;;;4934376;28;20030;-82
2024/01/28 08:14:09;;;;;;;10.85;6.20;;;-0.50;99.90;;;;;;4923455;28;20501;-82
2024/01/28 08:16:35;;;;;;;12.70;6.00;;;-0.50;99.90;;;;;;4921545;28;20031;-82
2024/01/28 08:19:04;;;;;;;12.82;6.15;;;-0.40;99.90;;;;;;4959426;28;22259;-84
2024/01/28 08:21:31;;;;;;;13.48;6.47;;;-0.40;99.90;;;;;;4940721;28;20391;-81
2024/01/28 08:23:57;;;;;;;14.38;6.03;;;-0.40;99.90;;;;;;4945876;28;20022;-85
2024/01/28 08:26:23;;;;;;;17.52;7.32;;;-0.30;99.90;;;;;;4929551;28;20025;-83
2024/01/28 08:28:54;;;;;;;9.05;4.97;;;-0.40;99.90;;;;;;4933552;28;20142;-83
2024/01/28 08:31:23;;;;;;;12.02;5.32;;;-0.30;99.90;;;;;;4947885;28;20169;-79
2024/01/28 08:33:49;;;;;;;14.85;5.72;;;-0.30;99.90;;;;;;4949195;28;20030;-82
2024/01/28 08:36:15;;;;;;;12.25;6.00;;;-0.30;99.90;;;;;;4957976;28;20166;-82
2024/01/28 08:38:41;;;;;;;12.93;5.78;;;-0.30;99.90;;;;;;4923618;28;20411;-83
2024/01/28 08:41:07;;;;;;;16.27;5.75;;;-0.30;99.90;;;;;;4940183;28;20108;-82
2024/01/28 08:43:34;;;;;;;12.23;5.53;;;-0.20;99.90;;;;;;4940680;28;20378;-83
2024/01/28 08:46:03;;;;;;;13.25;6.03;;;-0.20;99.90;;;;;;4982024;28;20018;-81
2024/01/28 08:48:28;;;;;;;13.68;6.07;;;-0.20;99.90;;;;;;4963372;28;20014;-83
2024/01/28 08:50:54;;;;;;;15.02;6.28;;;-0.10;99.90;;;;;;4960280;28;20036;-82
2024/01/28 08:53:20;;;;;;;10.50;5.72;;;-0.10;99.90;;;;;;4950002;28;20046;-82
2024/01/28 08:55:45;;;;;;;13.82;5.60;;;-0.10;99.90;;;;;;4956747;28;20041;-83
2024/01/28 08:58:11;;;;;;;14.77;6.25;;;0.00;99.90;;;;;;4995906;28;20064;-83
2024/01/28 09:00:39;;;;;;;17.15;6.10;;;0.00;99.90;;;;;;4944102;28;20038;-83
2024/01/28 09:03:05;;;;;;;14.60;5.35;;;0.10;99.90;;;;;;4949429;28;20096;-82
2024/01/28 09:05:30;;;;;;;12.80;6.40;;;0.20;99.90;;;;;;4956724;28;20038;-82
2024/01/28 09:07:56;;;;;;;8.10;5.03;;;0.20;99.90;;;;;;4951307;28;20080;-82
2024/01/28 09:10:25;;;;;;;6.47;4.88;;;0.30;99.90;;;;;;4971779;28;20254;-80
2024/01/28 09:12:51;;;;;;;12.93;5.60;;;0.40;99.90;;;;;;4975553;28;20053;-83
2024/01/28 09:15:17;;;;;;;11.27;5.10;;;0.50;99.90;;;;;;4954386;28;20037;-83
2024/01/28 09:17:42;;;;;;;11.57;5.88;;;0.50;99.90;;;;;;4957959;28;20038;-83
2024/01/28 09:20:09;;;;;;;8.80;5.00;;;0.70;99.90;;;;;;4953052;28;20232;-83
2024/01/28 09:22:36;;;;;;;12.23;5.25;;;0.70;99.90;;;;;;4951610;28;20487;-82
2024/01/28 09:25:03;;;;;;;13.68;5.78;;;0.80;99.90;;;;;;4968464;28;20109;-82
2024/01/28 09:27:29;;;;;;;9.07;4.85;;;0.90;99.90;;;;;;4952240;28;20022;-84
2024/01/28 09:29:55;;;;;;;15.45;5.40;;;1.00;99.90;;;;;;4953236;28;20039;-82
2024/01/28 09:32:20;;;;;;;13.73;5.80;;;1.10;99.90;;;;;;4958869;28;20030;-83
2024/01/28 09:34:46;;;;;;;8.65;4.78;;;1.20;99.90;;;;;;4952951;28;21366;-83
2024/01/28 09:37:12;;;;;;;11.38;5.25;;;1.20;99.90;;;;;;4987648;28;20113;-82
2024/01/28 09:39:37;;;;;;;9.73;4.90;;;1.30;99.90;;;;;;4941281;28;20034;-82
2024/01/28 09:42:34;;;;;;;17.30;4.70;;;1.50;99.90;;;;;;4940844;28;20022;-82
2024/01/28 09:45:00;;;;;;;5.72;3.75;;;1.50;99.90;;;;;;4950172;28;20022;-82
2024/01/28 09:47:27;;;;;;;9.77;4.45;;;1.60;99.90;;;;;;4949412;28;20034;-82
2024/01/28 09:49:55;;;;;;;9.98;3.83;;;1.70;99.90;;;;;;4949468;28;20042;-83
2024/01/28 09:52:21;;;;;;;8.25;3.83;;;1.80;99.90;;;;;;4959521;28;20421;-79
2024/01/28 09:54:47;;;;;;;13.90;4.32;;;1.90;99.90;;;;;;4932945;28;20038;-82
2024/01/28 09:57:14;;;;;;;8.27;4.00;;;2.00;99.90;;;;;;4908908;28;20034;-82
2024/01/28 09:59:40;;;;;;;8.55;3.15;;;2.10;99.90;;;;;;4908116;28;20022;-81
2024/01/28 10:02:06;;;;;;;15.32;3.85;;;2.20;99.90;;;;;;4899635;28;20041;-82
2024/01/28 10:04:33;;;;;;;5.63;3.60;;;2.30;99.90;;;;;;4900900;28;20030;-79
2024/01/28 10:07:02;;;;;;;6.55;2.85;;;2.50;99.90;;;;;;4987456;28;20023;-82
2024/01/28 10:09:31;;;;;;;10.05;3.05;;;2.60;99.90;;;;;;4911369;28;20026;-82
2024/01/28 10:12:00;;;;;;;10.00;2.72;;;2.70;99.90;;;;;;4903881;28;20034;-82
2024/01/28 10:14:26;;;;;;;6.45;2.55;;;2.90;99.90;;;;;;4904182;28;20105;-81
2024/01/28 10:16:54;;;;;;;8.50;2.95;;;2.90;99.90;;;;;;4907239;28;20752;-82
2024/01/28 10:19:23;;;;;;;11.75;2.83;;;3.00;99.90;;;;;;4977959;28;20491;-79
2024/01/28 10:22:12;;;;;;;4.80;2.22;;;3.10;99.90;;;;;;4943410;28;20045;-83
2024/01/28 10:25:29;;;;;;;;;;;;;;;;;;;;;
2024/01/28 10:28:29;;;;;;;;;;;;;;;;;;;;;
2024/01/28 10:30:50;;;;;;;3.72;2.50;;;3.30;99.90;;;;;;5081991;23;20062;-60
2024/01/28 10:33:16;;;;;;;8.50;2.42;;;3.40;99.90;;;;;;4942658;28;20605;-60
2024/01/28 10:35:44;;;;;;;2.85;1.83;;;3.50;99.90;;;;;;4941021;28;20022;-59
2024/01/28 10:38:15;;;;;;;5.80;2.42;;;3.50;99.90;;;;;;4924544;28;20019;-59
2024/01/28 10:40:44;;;;;;;4.35;2.10;;;3.60;99.90;;;;;;4924835;28;21295;-59
2024/01/28 10:43:12;;;;;;;4.88;2.50;;;3.60;99.90;;;;;;4977174;28;20026;-59
2024/01/28 10:45:44;;;;;;;6.80;2.45;;;3.60;99.90;;;;;;4942534;28;20104;-59
2024/01/28 10:48:16;;;;;;;8.73;2.47;;;3.70;99.90;;;;;;4939069;28;20161;-57
2024/01/28 10:50:42;;;;;;;4.97;2.28;;;3.70;99.90;;;;;;4916636;28;20029;-57
2024/01/28 10:53:10;;;;;;;4.78;2.55;;;3.80;99.90;;;;;;4921969;28;20110;-59
2024/01/28 10:55:36;;;;;;;5.72;2.03;;;3.90;99.90;;;;;;4918669;28;20534;-59
2024/01/28 10:58:04;;;;;;;4.78;2.53;;;3.90;99.90;;;;;;4967899;28;20030;-59
2024/01/28 11:00:30;;;;;;;6.97;2.35;;;4.00;99.90;;;;;;4922520;28;20049;-58
2024/01/28 11:02:59;;;;;;;8.18;1.98;;;4.00;99.90;;;;;;4911627;28;20837;-60
2024/01/28 11:05:26;;;;;;;3.72;2.20;;;4.10;99.90;;;;;;4919072;28;20022;-60
2024/01/28 11:07:54;;;;;;;5.63;2.28;;;4.20;99.90;;;;;;4906980;28;21773;-59
2024/01/28 11:10:21;;;;;;;9.25;2.38;;;4.30;99.90;;;;;;4972406;28;20041;-60
2024/01/28 11:12:48;;;;;;;4.63;2.15;;;4.30;99.90;;;;;;4936235;28;20093;-60
2024/01/28 11:15:14;;;;;;;9.43;2.50;;;4.30;99.90;;;;;;4923087;28;20034;-60
2024/01/28 11:17:40;;;;;;;10.73;2.17;;;4.40;99.90;;;;;;4902142;28;20049;-59
2024/01/28 11:20:10;;;;;;;8.50;2.75;;;4.40;99.90;;;;;;4906194;28;20034;-59
2024/01/28 11:22:54;;;;;;;4.35;1.90;;;4.40;99.90;;;;;;4915634;28;20113;-58
2024/01/28 11:25:21;;;;;;;6.32;2.65;;;4.40;99.90;;;;;;4962532;28;20369;-60
2024/01/28 11:27:50;;;;;;;5.97;2.22;;;4.50;99.90;;;;;;4938203;28;20026;-60
2024/01/28 11:30:21;;;;;;;5.32;2.15;;;4.50;99.90;;;;;;4916416;28;20069;-59
2024/01/28 11:32:47;;;;;;;5.55;2.22;;;4.50;99.90;;;;;;4899289;28;20029;-60
2024/01/28 11:35:12;;;;;;;6.18;1.95;;;4.50;99.90;;;;;;4905477;28;20045;-59
2024/01/28 11:37:47;;;;;;;8.05;2.60;;;4.60;99.90;;;;;;4893226;28;20035;-60
2024/01/28 11:40:28;;;;;;;5.00;2.10;;;4.70;99.90;;;;;;4956076;28;20030;-58
2024/01/28 11:42:54;;;;;;;3.97;2.10;;;4.70;99.90;;;;;;4951900;28;20054;-58
2024/01/28 11:45:21;;;;;;;6.60;2.67;;;4.70;99.90;;;;;;4933614;28;20614;-59
2024/01/28 11:47:47;;;;;;;5.45;2.13;;;4.70;99.90;;;;;;4934753;28;20120;-59
2024/01/28 11:50:12;;;;;;;6.15;1.98;;;4.80;99.90;;;;;;4912537;28;20543;-59
2024/01/28 11:52:38;;;;;;;6.05;1.77;;;4.80;99.90;;;;;;4925091;28;20391;-60
2024/01/28 11:55:17;;;;;;;6.05;1.77;;;4.80;99.90;;;;;;4945687;28;20661;-60
2024/01/28 11:57:47;;;;;;;5.65;1.63;;;4.80;99.90;;;;;;4932316;28;20478;-59
2024/01/28 12:00:14;;;;;;;3.50;2.03;;;4.80;99.90;;;;;;4918851;28;20040;-59
2024/01/28 12:02:41;;;;;;;6.78;1.98;;;4.80;99.90;;;;;;4907719;28;22018;-59
2024/01/28 12:05:07;;;;;;;4.90;2.25;;;4.90;99.90;;;;;;4930486;28;20022;-59
2024/01/28 12:07:35;;;;;;;6.32;2.05;;;4.90;99.90;;;;;;4911151;28;20495;-59
2024/01/28 12:10:02;;;;;;;3.25;2.03;;;4.90;99.90;;;;;;4967653;28;20038;-59
2024/01/28 12:12:28;;;;;;;5.75;1.83;;;5.00;99.90;;;;;;4937450;28;20442;-60
2024/01/28 12:14:56;;;;;;;4.25;1.77;;;5.00;99.90;;;;;;4931482;28;20034;-59
2024/01/28 12:17:22;;;;;;;6.80;1.98;;;5.00;99.90;;;;;;4899040;28;20031;-61
2024/01/28 12:19:50;;;;;;;5.15;2.20;;;5.00;99.90;;;;;;4915532;28;22082;-61
2024/01/28 12:22:16;;;;;;;4.32;1.73;;;5.00;99.90;;;;;;4950770;28;20038;-61
2024/01/28 12:24:47;;;;;;;3.72;1.73;;;5.10;99.90;;;;;;4941592;28;20023;-61
2024/01/28 12:27:14;;;;;;;3.33;1.40;;;5.10;99.90;;;;;;4923645;28;20109;-61
2024/01/28 12:29:41;;;;;;;2.83;1.35;;;5.20;99.90;;;;;;4896472;28;21123;-61
2024/01/28 12:32:10;;;;;;;6.40;1.73;;;5.20;99.90;;;;;;4913822;28;20030;-61
2024/01/28 12:34:39;;;;;;;5.28;1.42;;;5.20;99.90;;;;;;4902543;28;20035;-59
2024/01/28 12:37:04;;;;;;;5.28;1.40;;;5.10;99.90;;;;;;4935411;28;20029;-60
2024/01/28 12:39:30;;;;;;;3.33;1.60;;;5.10;99.90;;;;;;4921948;28;20598;-60
2024/01/28 12:41:55;;;;;;;3.63;1.52;;;5.10;99.90;;;;;;4924668;28;20030;-60
2024/01/28 12:44:21;;;;;;;2.78;1.25;;;5.10;99.90;;;;;;4915050;28;20430;-62
2024/01/28 12:46:47;;;;;;;3.80;1.13;;;5.20;99.90;;;;;;4930487;28;21890;-61